Time;durP1;ratioP1;P1;durP2;ratioP2;P2;SDS_P1;SDS_P2;PMS_P1;PMS_P2;Temp;Humidity;BMP_temperature;BMP_pressure;BME280_temperature;BME280_humidity;BME280_pressure;Samples;Min_cycle;Max_cycle;Signal;HPM_P1;HPM_P2
2022/11/09 00:00:46;;;;;;;;;;;19.30;99.90;;;;;;5049258;28;19921;-57
2022/11/09 00:03:13;;;;;;;;;;;19.30;99.90;;;;;;5037157;28;19929;-61
2022/11/09 00:05:40;;;;;;;;;;;19.30;99.90;;;;;;5046576;28;19925;-60
2022/11/09 00:08:08;;;;;;;;;;;19.30;99.90;;;;;;5048385;28;20316;-60
2022/11/09 00:10:36;;;;;;;;;;;19.30;99.90;;;;;;5048135;28;20316;-59
2022/11/09 00:13:03;;;;;;;;;;;19.30;99.90;;;;;;5031896;28;19925;-60
2022/11/09 00:15:30;;;;;;;;;;;19.30;99.90;;;;;;5049995;28;20407;-58
2022/11/09 00:17:59;;;;;;;;;;;19.30;99.90;;;;;;5047017;28;19925;-57
2022/11/09 00:20:26;;;;;;;;;;;19.30;99.90;;;;;;5046807;28;19947;-58
2022/11/09 00:22:53;;;;;;;;;;;19.30;99.90;;;;;;5046775;28;19939;-59
2022/11/09 00:25:20;;;;;;;;;;;19.20;99.90;;;;;;5047207;28;19927;-59
2022/11/09 00:27:48;;;;;;;;;;;19.20;99.90;;;;;;5047912;28;19924;-58
2022/11/09 00:30:15;;;;;;;;;;;19.20;99.90;;;;;;5035736;28;19921;-59
2022/11/09 00:32:43;;;;;;;;;;;19.20;99.90;;;;;;5025503;28;19928;-60
2022/11/09 00:35:12;;;;;;;;;;;19.20;99.90;;;;;;5050789;28;19932;-57
2022/11/09 00:37:39;;;;;;;;;;;19.20;99.90;;;;;;5060598;28;19937;-57
2022/11/09 00:40:09;;;;;;;;;;;19.10;99.90;;;;;;5059958;28;19920;-57
2022/11/09 00:42:36;;;;;;;;;;;19.10;99.90;;;;;;5059039;28;20417;-60
2022/11/09 00:45:04;;;;;;;;;;;19.10;99.90;;;;;;5055048;28;19931;-67
2022/11/09 00:47:32;;;;;;;;;;;19.10;99.90;;;;;;5052221;28;19932;-64
2022/11/09 00:49:59;;;;;;;;;;;19.10;99.90;;;;;;5035443;28;19924;-58
2022/11/09 00:52:26;;;;;;;;;;;19.10;99.90;;;;;;5048373;28;19928;-58
2022/11/09 00:54:53;;;;;;;;;;;19.10;99.90;;;;;;5029367;28;19932;-57
2022/11/09 00:57:20;;;;;;;;;;;19.10;99.90;;;;;;5048484;28;19935;-56
2022/11/09 00:59:48;;;;;;;;;;;19.10;99.90;;;;;;5048470;28;20293;-58
2022/11/09 01:02:15;;;;;;;;;;;19.10;99.90;;;;;;5049441;28;19991;-57
2022/11/09 01:04:42;;;;;;;;;;;19.10;99.90;;;;;;5049743;28;19929;-57
2022/11/09 01:07:09;;;;;;;;;;;19.10;99.90;;;;;;5039477;28;19928;-58
2022/11/09 01:09:36;;;;;;;;;;;19.10;99.90;;;;;;5046496;28;19924;-60
2022/11/09 01:12:03;;;;;;;;;;;19.00;99.90;;;;;;5054373;28;20261;-59
2022/11/09 01:14:31;;;;;;;;;;;19.10;99.90;;;;;;5058891;28;19947;-60
2022/11/09 01:16:58;;;;;;;;;;;19.10;99.90;;;;;;5045870;28;20315;-61
2022/11/09 01:19:25;;;;;;;;;;;19.10;99.90;;;;;;5023332;28;19928;-59
2022/11/09 01:21:52;;;;;;;;;;;19.10;99.90;;;;;;5052504;28;20388;-60
2022/11/09 01:24:20;;;;;;;;;;;19.10;99.90;;;;;;5047846;28;19924;-58
2022/11/09 01:26:47;;;;;;;;;;;19.00;99.90;;;;;;5036146;28;20588;-58
2022/11/09 01:29:14;;;;;;;;;;;19.00;99.90;;;;;;5047821;28;19921;-56
2022/11/09 01:31:41;;;;;;;;;;;19.10;99.90;;;;;;5047621;28;19920;-57
2022/11/09 01:34:08;;;;;;;;;;;19.00;99.90;;;;;;5044901;28;19925;-61
2022/11/09 01:36:35;;;;;;;;;;;19.00;99.90;;;;;;5034366;28;19928;-57
2022/11/09 01:39:03;;;;;;;;;;;19.00;99.90;;;;;;5047253;28;19971;-58
2022/11/09 01:41:30;;;;;;;;;;;19.00;99.90;;;;;;5039806;28;19921;-59
2022/11/09 01:44:10;;;;;;;;;;;19.00;99.90;;;;;;5039528;28;19931;-60
2022/11/09 01:46:52;;;;;;;;;;;19.00;99.90;;;;;;5036678;28;19932;-59
2022/11/09 01:49:36;;;;;;;;;;;19.00;99.90;;;;;;5047749;28;19921;-58
2022/11/09 01:52:06;;;;;;;;;;;19.00;99.90;;;;;;5043270;28;20136;-57
2022/11/09 01:54:37;;;;;;;;;;;19.00;99.90;;;;;;5039302;28;19929;-60
2022/11/09 01:57:06;;;;;;;;;;;19.00;99.90;;;;;;5047036;28;19932;-57
2022/11/09 01:59:37;;;;;;;;;;;19.00;99.90;;;;;;5029997;28;19921;-60
2022/11/09 02:02:04;;;;;;;;;;;19.00;99.90;;;;;;5047931;28;19931;-60
2022/11/09 02:04:33;;;;;;;;;;;19.00;99.90;;;;;;5042097;28;19932;-53
2022/11/09 02:07:01;;;;;;;;;;;19.00;99.90;;;;;;5052145;28;21429;-57
2022/11/09 02:09:32;;;;;;;;;;;18.90;99.90;;;;;;5053170;28;19924;-58
2022/11/09 02:11:59;;;;;;;;;;;18.90;99.90;;;;;;5035953;28;19928;-58
2022/11/09 02:14:27;;;;;;;;;;;18.90;99.90;;;;;;5028583;28;19921;-56
2022/11/09 02:16:55;;;;;;;;;;;18.90;99.90;;;;;;5053046;28;19920;-56
2022/11/09 02:19:22;;;;;;;;;;;18.90;99.90;;;;;;5035416;28;19924;-57
2022/11/09 02:21:49;;;;;;;;;;;18.90;99.90;;;;;;5043361;28;19933;-58
2022/11/09 02:24:16;;;;;;;;;;;18.90;99.90;;;;;;5049187;28;19951;-59
2022/11/09 02:26:47;;;;;;;;;;;18.90;99.90;;;;;;5048674;28;19936;-58
2022/11/09 02:29:17;;;;;;;;;;;18.90;99.90;;;;;;5037690;28;20432;-55
2022/11/09 02:31:46;;;;;;;;;;;18.90;99.90;;;;;;5033708;28;19925;-58
2022/11/09 02:34:15;;;;;;;;;;;18.90;99.90;;;;;;5036734;28;19936;-54
2022/11/09 02:36:43;;;;;;;;;;;18.90;99.90;;;;;;5041584;28;19924;-57
2022/11/09 02:39:16;;;;;;;;;;;18.90;99.90;;;;;;5039476;28;19927;-55
2022/11/09 02:41:54;;;;;;;;;;;18.90;99.90;;;;;;5032045;28;20405;-58
2022/11/09 02:44:22;;;;;;;;;;;18.90;99.90;;;;;;5049665;28;20312;-60
2022/11/09 02:46:50;;;;;;;;;;;18.90;99.90;;;;;;5051777;28;19939;-59
2022/11/09 02:49:18;;;;;;;;;;;18.90;99.90;;;;;;5043054;28;19925;-62
2022/11/09 02:51:45;;;;;;;;;;;18.90;99.90;;;;;;5056381;28;20316;-57
2022/11/09 02:54:12;;;;;;;;;;;18.90;99.90;;;;;;5055811;28;19925;-59
2022/11/09 02:56:40;;;;;;;;;;;18.90;99.90;;;;;;5040203;28;20327;-59
2022/11/09 02:59:08;;;;;;;;;;;18.90;99.90;;;;;;5047265;28;19932;-61
2022/11/09 03:01:35;;;;;;;;;;;18.80;99.90;;;;;;5043561;28;19921;-58
2022/11/09 03:04:02;;;;;;;;;;;18.90;99.90;;;;;;5050059;28;20396;-55
2022/11/09 03:06:33;;;;;;;;;;;18.80;99.90;;;;;;5040388;28;20447;-59
2022/11/09 03:09:08;;;;;;;;;;;18.80;99.90;;;;;;5061564;28;19920;-55
2022/11/09 03:11:38;;;;;;;;;;;18.80;99.90;;;;;;5039069;28;20392;-60
2022/11/09 03:14:05;;;;;;;;;;;18.90;99.90;;;;;;5060379;28;19927;-59
2022/11/09 03:16:34;;;;;;;;;;;18.80;99.90;;;;;;5030422;28;19925;-58
2022/11/09 03:19:04;;;;;;;;;;;18.80;99.90;;;;;;5039516;28;19925;-57
2022/11/09 03:21:32;;;;;;;;;;;18.80;99.90;;;;;;5030994;28;19931;-58
2022/11/09 03:23:59;;;;;;;;;;;18.80;99.90;;;;;;5039507;28;19921;-60
2022/11/09 03:26:26;;;;;;;;;;;18.80;99.90;;;;;;5049721;28;19921;-59
2022/11/09 03:28:54;;;;;;;;;;;18.80;99.90;;;;;;5034364;28;19932;-58
2022/11/09 03:31:21;;;;;;;;;;;18.80;99.90;;;;;;5048335;28;20422;-58
2022/11/09 03:33:50;;;;;;;;;;;18.80;99.90;;;;;;5040506;28;19920;-60
2022/11/09 03:36:18;;;;;;;;;;;18.80;99.90;;;;;;5029097;28;19924;-58
2022/11/09 03:38:45;;;;;;;;;;;18.80;99.90;;;;;;5048353;28;20381;-58
2022/11/09 03:41:13;;;;;;;;;;;18.80;99.90;;;;;;5031372;28;19924;-60
2022/11/09 03:43:40;;;;;;;;;;;18.80;99.90;;;;;;5041104;28;19940;-59
2022/11/09 03:46:07;;;;;;;;;;;18.80;99.90;;;;;;5031905;28;20400;-60
2022/11/09 03:48:34;;;;;;;;;;;18.80;99.90;;;;;;5053658;28;19927;-57
2022/11/09 03:51:01;;;;;;;;;;;18.80;99.90;;;;;;5056732;28;19921;-60
2022/11/09 03:53:28;;;;;;;;;;;18.80;99.90;;;;;;5051189;28;19932;-57
2022/11/09 03:55:56;;;;;;;;;;;18.80;99.90;;;;;;5038992;28;19925;-61
2022/11/09 03:58:23;;;;;;;;;;;18.80;99.90;;;;;;5050267;28;19931;-59
2022/11/09 04:00:50;;;;;;;;;;;18.80;99.90;;;;;;5050060;28;19927;-60
2022/11/09 04:03:17;;;;;;;;;;;18.80;99.90;;;;;;5040404;28;19920;-59
2022/11/09 04:05:45;;;;;;;;;;;18.80;99.90;;;;;;5052589;28;20388;-55
2022/11/09 04:08:12;;;;;;;;;;;18.80;99.90;;;;;;5032177;28;19924;-61
2022/11/09 04:10:39;;;;;;;;;;;18.80;99.90;;;;;;5049004;28;19921;-57
2022/11/09 04:13:06;;;;;;;;;;;18.80;99.90;;;;;;5039081;28;19988;-58
2022/11/09 04:15:33;;;;;;;;;;;18.80;99.90;;;;;;5046411;28;19931;-57
2022/11/09 04:18:01;;;;;;;;;;;18.70;99.90;;;;;;5048885;28;19921;-54
2022/11/09 04:20:28;;;;;;;;;;;18.80;99.90;;;;;;5048363;28;19929;-57
2022/11/09 04:22:57;;;;;;;;;;;18.80;99.90;;;;;;5042961;28;19932;-59
2022/11/09 04:25:24;;;;;;;;;;;18.70;99.90;;;;;;5047987;28;20388;-58
2022/11/09 04:27:53;;;;;;;;;;;18.80;99.90;;;;;;5047979;28;19931;-57
2022/11/09 04:30:20;;;;;;;;;;;18.70;99.90;;;;;;5048206;28;19924;-59
2022/11/09 04:32:47;;;;;;;;;;;18.70;99.90;;;;;;5047849;28;19925;-61
2022/11/09 04:35:15;;;;;;;;;;;18.70;99.90;;;;;;5041448;28;19931;-59
2022/11/09 04:37:42;;;;;;;;;;;18.70;99.90;;;;;;5048641;28;20270;-57
2022/11/09 04:40:09;;;;;;;;;;;18.70;99.90;;;;;;5048116;28;19935;-55
2022/11/09 04:42:36;;;;;;;;;;;18.70;99.90;;;;;;5047847;28;19929;-56
2022/11/09 04:45:03;;;;;;;;;;;18.70;99.90;;;;;;5048826;28;19931;-57
2022/11/09 04:47:30;;;;;;;;;;;18.70;99.90;;;;;;5048467;28;19920;-55
2022/11/09 04:49:58;;;;;;;;;;;18.70;99.90;;;;;;5049033;28;20575;-58
2022/11/09 04:52:25;;;;;;;;;;;18.70;99.90;;;;;;5051159;28;19924;-61
2022/11/09 04:54:52;;;;;;;;;;;18.70;99.90;;;;;;5045827;28;19928;-59
2022/11/09 04:57:19;;;;;;;;;;;18.70;99.90;;;;;;5035004;28;19921;-60
2022/11/09 04:59:46;;;;;;;;;;;18.80;99.90;;;;;;5039534;28;19929;-58
2022/11/09 05:02:15;;;;;;;;;;;18.80;99.90;;;;;;5047959;28;19921;-61
2022/11/09 05:04:43;;;;;;;;;;;18.80;99.90;;;;;;5020109;22;20631;-58
2022/11/09 05:07:10;;;;;;;;;;;18.90;99.90;;;;;;5005736;28;20324;-61
2022/11/09 05:09:37;;;;;;;;;;;18.80;99.90;;;;;;5002961;28;19945;-59
2022/11/09 05:12:05;;;;;;;;;;;18.90;99.90;;;;;;5007992;28;19928;-61
2022/11/09 05:14:32;;;;;;;;;;;18.90;99.90;;;;;;5000437;28;19925;-60
2022/11/09 05:16:59;;;;;;;;;;;18.90;99.90;;;;;;5013380;28;19925;-62
2022/11/09 05:19:26;;;;;;;;;;;18.90;99.90;;;;;;5000322;28;19930;-60
2022/11/09 05:21:53;;;;;;;;;;;18.90;99.90;;;;;;5009534;28;19940;-61
2022/11/09 05:24:20;;;;;;;;;;;18.90;99.90;;;;;;5009294;28;20415;-61
2022/11/09 05:26:47;;;;;;;;;;;18.80;99.90;;;;;;5012685;28;19925;-61
2022/11/09 05:29:14;;;;;;;;;;;18.80;99.90;;;;;;4988132;28;20417;-59
2022/11/09 05:31:41;;;;;;;;;;;18.80;99.90;;;;;;5007610;28;19933;-57
2022/11/09 05:34:14;;;;;;;;;;;18.80;99.90;;;;;;5012835;28;20212;-57
2022/11/09 05:36:41;;;;;;;;;;;18.90;99.90;;;;;;5009966;28;19952;-62
2022/11/09 05:39:08;;;;;;;;;;;18.90;99.90;;;;;;5008443;28;20613;-60
2022/11/09 05:41:35;;;;;;;;;;;18.90;99.90;;;;;;5010556;28;20393;-58
2022/11/09 05:44:02;;;;;;;;;;;18.90;99.90;;;;;;5004793;28;19931;-61
2022/11/09 05:46:30;;;;;;;;;;;18.90;99.90;;;;;;5013296;28;19933;-62
2022/11/09 05:48:57;;;;;;;;;;;18.90;99.90;;;;;;4996339;28;19930;-58
2022/11/09 05:51:24;;;;;;;;;;;18.90;99.90;;;;;;5009365;28;20312;-56
2022/11/09 05:53:51;;;;;;;;;;;18.90;99.90;;;;;;5012107;28;20399;-59
2022/11/09 05:56:18;;;;;;;;;;;18.90;99.90;;;;;;5001905;28;19921;-60
2022/11/09 05:58:45;;;;;;;;;;;18.90;99.90;;;;;;5015359;28;19921;-60
2022/11/09 06:01:14;;;;;;;;;;;18.90;99.90;;;;;;5011539;28;20313;-61
2022/11/09 06:03:42;;;;;;;;;;;18.90;99.90;;;;;;5014475;28;19932;-58
2022/11/09 06:06:11;;;;;;;;;;;19.00;99.90;;;;;;5006605;28;19921;-59
2022/11/09 06:08:38;;;;;;;;;;;19.00;99.90;;;;;;5006617;28;19925;-62
2022/11/09 06:11:07;;;;;;;;;;;19.10;99.90;;;;;;5010494;28;19929;-60
2022/11/09 06:13:34;;;;;;;;;;;19.20;99.90;;;;;;5021167;28;19925;-63
2022/11/09 06:16:03;;;;;;;;;;;19.40;99.90;;;;;;5023558;28;20396;-65
2022/11/09 06:18:31;;;;;;;;;;;19.60;99.90;;;;;;4999248;28;19925;-64
2022/11/09 06:20:59;;;;;;;;;;;19.80;99.90;;;;;;5014868;28;19937;-71
2022/11/09 06:23:28;;;;;;;;;;;20.00;99.90;;;;;;5009859;28;19949;-63
2022/11/09 06:25:59;;;;;;;;;;;20.10;99.90;;;;;;4999610;28;19929;-60
2022/11/09 06:28:26;;;;;;;;;;;20.20;99.90;;;;;;5005522;28;19928;-60
2022/11/09 06:30:57;;;;;;;;;;;20.40;99.90;;;;;;5011936;28;19929;-60
2022/11/09 06:33:25;;;;;;;;;;;20.40;99.90;;;;;;4994097;28;19925;-58
2022/11/09 06:35:52;;;;;;;;;;;20.50;99.90;;;;;;5008899;28;19936;-62
2022/11/09 06:38:22;;;;;;;;;;;20.50;99.90;;;;;;5009633;28;19925;-61
2022/11/09 06:44:43;;;;;;;;;;;20.60;99.90;;;;;;5000475;28;19909;-57
2022/11/09 06:47:10;;;;;;;;;;;20.70;99.90;;;;;;4993440;28;19921;-60
2022/11/09 06:49:38;;;;;;;;;;;20.70;99.90;;;;;;5016740;28;20352;-62
2022/11/09 06:52:05;;;;;;;;;;;20.70;99.90;;;;;;5013562;28;19921;-58
2022/11/09 06:54:33;;;;;;;;;;;20.70;99.90;;;;;;5007613;28;20415;-60
2022/11/09 06:57:00;;;;;;;;;;;20.70;99.90;;;;;;5016276;28;19952;-60
2022/11/09 06:59:27;;;;;;;;;;;20.70;99.90;;;;;;5009369;28;19929;-57
2022/11/09 07:01:56;;;;;;;;;;;20.70;99.90;;;;;;4994380;28;19933;-60
2022/11/09 07:04:27;;;;;;;;;;;20.70;99.90;;;;;;5000734;28;20390;-64
2022/11/09 07:06:54;;;;;;;;;;;20.70;99.90;;;;;;5005017;28;19921;-61
2022/11/09 07:09:22;;;;;;;;;;;20.70;99.90;;;;;;5010237;28;19922;-59
2022/11/09 07:11:49;;;;;;;;;;;20.70;99.90;;;;;;4994957;28;19935;-61
2022/11/09 07:14:16;;;;;;;;;;;20.60;99.90;;;;;;4978964;28;19932;-62
2022/11/09 07:16:43;;;;;;;;;;;20.60;99.90;;;;;;5020574;28;19926;-62
2022/11/09 07:19:10;;;;;;;;;;;20.50;99.90;;;;;;5001246;28;20371;-61
2022/11/09 07:21:37;;;;;;;;;;;20.50;99.90;;;;;;5015966;28;20388;-62
2022/11/09 07:24:04;;;;;;;;;;;20.50;99.90;;;;;;5014721;28;19925;-62
2022/11/09 07:26:32;;;;;;;;;;;20.50;99.90;;;;;;4995846;28;19933;-63
2022/11/09 07:28:59;;;;;;;;;;;20.50;99.90;;;;;;5010352;28;20376;-64
2022/11/09 07:31:28;;;;;;;;;;;20.40;99.90;;;;;;5017652;28;19940;-62
2022/11/09 07:33:57;;;;;;;;;;;20.40;99.90;;;;;;4994108;28;20250;-61
2022/11/09 07:36:24;;;;;;;;;;;20.40;99.90;;;;;;5001312;28;20404;-62
2022/11/09 07:38:51;;;;;;;;;;;20.40;99.90;;;;;;4992341;28;19978;-61
2022/11/09 07:41:18;;;;;;;;;;;20.40;99.90;;;;;;5000736;28;19921;-64
2022/11/09 07:43:45;;;;;;;;;;;20.40;99.90;;;;;;4990885;28;20236;-62
2022/11/09 07:46:12;;;;;;;;;;;20.40;99.90;;;;;;5009783;28;19925;-63
2022/11/09 07:48:39;;;;;;;;;;;20.40;99.90;;;;;;5005324;28;19926;-60
2022/11/09 07:51:07;;;;;;;;;;;20.40;99.90;;;;;;4985920;28;20381;-62
2022/11/09 07:53:34;;;;;;;;;;;20.40;99.90;;;;;;5002938;28;20300;-62
2022/11/09 07:56:02;;;;;;;;;;;20.40;99.90;;;;;;4991024;28;19920;-59
2022/11/09 07:58:29;;;;;;;;;;;20.50;99.90;;;;;;5007089;28;19929;-62
2022/11/09 08:00:56;;;;;;;;;;;20.40;99.90;;;;;;4999573;28;19929;-61
2022/11/09 08:03:24;;;;;;;;;;;20.50;99.90;;;;;;5001641;28;19928;-67
2022/11/09 08:05:51;;;;;;;;;;;20.40;99.90;;;;;;4986464;28;19929;-62
2022/11/09 08:08:18;;;;;;;;;;;20.40;99.90;;;;;;5003372;28;19930;-61
2022/11/09 08:10:50;;;;;;;;;;;20.40;99.90;;;;;;5013176;28;19936;-64
2022/11/09 08:13:18;;;;;;;;;;;20.30;99.90;;;;;;4991609;28;19925;-64
2022/11/09 08:15:46;;;;;;;;;;;20.30;99.90;;;;;;4994319;28;19929;-68
2022/11/09 08:18:15;;;;;;;;;;;20.40;99.90;;;;;;4997450;28;20317;-65
2022/11/09 08:20:43;;;;;;;;;;;20.40;99.90;;;;;;4998242;28;19932;-65
2022/11/09 08:23:11;;;;;;;;;;;20.40;99.90;;;;;;5007071;28;19921;-67
2022/11/09 08:25:38;;;;;;;;;;;20.40;99.90;;;;;;4985124;28;19925;-64
2022/11/09 08:28:06;;;;;;;;;;;20.30;99.90;;;;;;5007871;28;19925;-65
2022/11/09 08:30:41;;;;;;;;;;;20.30;99.90;;;;;;4995094;28;19925;-64
2022/11/09 08:33:09;;;;;;;;;;;20.30;99.90;;;;;;5001726;28;19952;-65
2022/11/09 08:35:36;;;;;;;;;;;20.20;99.90;;;;;;4994082;28;19921;-64
2022/11/09 08:38:04;;;;;;;;;;;20.20;99.90;;;;;;4994821;28;19925;-63
2022/11/09 08:40:32;;;;;;;;;;;20.20;99.90;;;;;;5015952;28;20340;-66
2022/11/09 08:43:00;;;;;;;;;;;20.10;99.90;;;;;;5002172;28;19936;-65
2022/11/09 08:45:27;;;;;;;;;;;20.10;99.90;;;;;;5002715;28;21009;-64
2022/11/09 08:47:58;;;;;;;;;;;20.10;99.90;;;;;;4999596;28;19932;-65
2022/11/09 08:50:27;;;;;;;;;;;20.10;99.90;;;;;;5010054;28;19930;-62
2022/11/09 08:52:54;;;;;;;;;;;19.70;99.90;;;;;;5009627;28;19925;-63
2022/11/09 08:55:21;;;;;;;;;;;19.50;99.90;;;;;;5009183;28;19945;-63
2022/11/09 08:57:51;;;;;;;;;;;19.10;99.90;;;;;;5012396;28;19962;-61
2022/11/09 09:00:19;;;;;;;;;;;18.90;99.90;;;;;;4985792;28;19930;-64
2022/11/09 09:02:46;;;;;;;;;;;18.90;99.90;;;;;;5004973;28;19921;-64
2022/11/09 09:05:13;;;;;;;;;;;19.20;99.90;;;;;;5013145;28;19925;-59
2022/11/09 09:07:41;;;;;;;;;;;19.50;99.90;;;;;;4982654;28;19925;-64
2022/11/09 09:10:08;;;;;;;;;;;19.70;99.90;;;;;;5010411;28;19925;-64
2022/11/09 09:12:35;;;;;;;;;;;19.90;99.90;;;;;;5015141;28;20244;-63
2022/11/09 09:15:03;;;;;;;;;;;20.00;99.90;;;;;;4971327;28;19932;-61
2022/11/09 09:17:30;;;;;;;;;;;20.10;99.90;;;;;;5002203;28;20412;-65
2022/11/09 09:19:57;;;;;;;;;;;20.30;99.90;;;;;;4996971;28;19932;-65
2022/11/09 09:22:25;;;;;;;;;;;20.40;99.90;;;;;;4992077;28;20394;-65
2022/11/09 09:24:52;;;;;;;;;;;20.50;99.90;;;;;;5000129;28;19930;-63
2022/11/09 09:27:19;;;;;;;;;;;20.60;99.90;;;;;;5002329;28;19922;-66
2022/11/09 09:29:46;;;;;;;;;;;20.60;99.90;;;;;;4999089;28;19921;-66
2022/11/09 09:32:14;;;;;;;;;;;20.60;99.90;;;;;;4998128;28;20115;-66
2022/11/09 09:34:41;;;;;;;;;;;20.70;99.90;;;;;;4985143;28;19930;-65
2022/11/09 09:37:08;;;;;;;;;;;20.60;99.90;;;;;;5001033;28;19925;-65
2022/11/09 09:39:35;;;;;;;;;;;20.60;99.90;;;;;;5004804;28;19921;-65
2022/11/09 09:42:15;;;;;;;;;;;20.60;99.90;;;;;;5003975;28;20417;-66
2022/11/09 09:44:42;;;;;;;;;;;20.60;99.90;;;;;;4981252;28;19926;-63
2022/11/09 09:47:12;;;;;;;;;;;20.70;99.90;;;;;;5001804;28;19932;-62
2022/11/09 09:49:44;;;;;;;;;;;20.60;99.90;;;;;;4997972;28;19925;-63
2022/11/09 09:52:17;;;;;;;;;;;20.60;99.90;;;;;;5001071;28;20440;-61
2022/11/09 09:55:07;;;;;;;;;;;20.60;99.90;;;;;;5002295;28;19940;-59
2022/11/09 09:57:35;;;;;;;;;;;20.50;99.90;;;;;;5002145;28;19921;-63
2022/11/09 10:00:14;;;;;;;;;;;20.50;99.90;;;;;;5006919;28;19926;-63
2022/11/09 10:02:41;;;;;;;;;;;20.40;99.90;;;;;;4983202;28;19929;-62
2022/11/09 10:05:12;;;;;;;;;;;20.40;99.90;;;;;;4997479;28;20172;-63
2022/11/09 10:07:48;;;;;;;;;;;20.30;99.90;;;;;;5009537;28;19933;-62
2022/11/09 10:10:15;;;;;;;;;;;20.30;99.90;;;;;;5001725;28;19929;-63
2022/11/09 10:12:45;;;;;;;;;;;20.30;99.90;;;;;;4994841;28;19926;-62
2022/11/09 10:15:16;;;;;;;;;;;20.30;99.90;;;;;;4983726;28;19937;-60
2022/11/09 10:17:55;;;;;;;;;;;20.40;99.90;;;;;;4997576;28;19926;-61
2022/11/09 10:20:22;;;;;;;;;;;20.50;99.90;;;;;;5007645;28;19925;-63
2022/11/09 10:23:08;;;;;;;;;;;20.50;99.90;;;;;;5014085;28;19929;-59
2022/11/09 10:25:37;;;;;;;;;;;20.50;99.90;;;;;;5005891;28;19932;-63
2022/11/09 10:28:27;;;;;;;;;;;20.50;99.90;;;;;;5008525;28;19932;-63
2022/11/09 10:31:17;;;;;;;;;;;20.50;99.90;;;;;;5009045;28;19931;-61
2022/11/09 10:33:46;;;;;;;;;;;20.50;99.90;;;;;;5008147;28;19921;-61
2022/11/09 10:36:18;;;;;;;;;;;20.40;99.90;;;;;;5006215;28;19952;-64
2022/11/09 10:38:48;;;;;;;;;;;20.50;99.90;;;;;;4995354;28;20049;-59
2022/11/09 10:41:34;;;;;;;;;;;20.50;99.90;;;;;;5009452;28;19925;-64
2022/11/09 10:44:20;;;;;;;;;;;20.50;99.90;;;;;;5006631;28;19929;-60
2022/11/09 10:47:10;;;;;;;;;;;20.40;99.90;;;;;;5014110;28;19921;-61
2022/11/09 10:50:16;;;;;;;;;;;20.40;99.90;;;;;;5010565;28;20385;-61
2022/11/09 10:53:09;;;;;;;;;;;20.40;99.90;;;;;;4976847;28;19925;-64
2022/11/09 10:56:16;;;;;;;;;;;20.30;99.90;;;;;;5019296;28;19924;-63
2022/11/09 10:59:25;;;;;;;;;;;20.30;99.90;;;;;;5010939;28;19925;-60
2022/11/09 11:02:25;;;;;;;;;;;20.20;99.90;;;;;;5010018;28;19921;-60
2022/11/09 11:05:17;;;;;;;;;;;20.20;99.90;;;;;;5001300;28;19921;-62
2022/11/09 11:08:18;;;;;;;;;;;20.20;99.90;;;;;;5015374;28;19925;-61
2022/11/09 11:11:21;;;;;;;;;;;20.10;99.90;;;;;;5013465;28;19925;-63
2022/11/09 11:14:32;;;;;;;;;;;20.00;99.90;;;;;;5006778;28;20308;-60
2022/11/09 11:17:28;;;;;;;;;;;20.00;99.90;;;;;;5012337;28;19925;-61
2022/11/09 11:20:30;;;;;;;;;;;19.90;99.90;;;;;;5007416;28;19921;-57
2022/11/09 11:23:17;;;;;;;;;;;19.90;99.90;;;;;;4996798;28;19921;-60
2022/11/09 11:26:19;;;;;;;;;;;19.90;99.90;;;;;;5007462;28;19925;-61
2022/11/09 11:29:31;;;;;;;;;;;19.90;99.90;;;;;;5006794;28;20309;-61
2022/11/09 11:32:18;;;;;;;;;;;19.90;99.90;;;;;;4988740;28;19925;-62
2022/11/09 11:35:14;;;;;;;;;;;19.90;99.90;;;;;;5000524;28;20401;-59
2022/11/09 11:38:20;;;;;;;;;;;19.90;99.90;;;;;;5012094;28;20364;-60
2022/11/09 11:41:18;;;;;;;;;;;19.90;99.90;;;;;;5014390;28;19925;-59
2022/11/09 11:44:14;;;;;;;;;;;19.90;99.90;;;;;;5019280;28;19970;-62
2022/11/09 11:47:00;;;;;;;;;;;19.90;99.90;;;;;;5010325;28;19925;-58
2022/11/09 11:49:45;;;;;;;;;;;19.90;99.90;;;;;;5015584;28;19925;-57
2022/11/09 11:52:49;;;;;;;;;;;19.90;99.90;;;;;;5027049;28;19924;-60
2022/11/09 11:55:46;;;;;;;;;;;19.90;99.90;;;;;;5016483;28;19921;-60
2022/11/09 11:58:35;;;;;;;;;;;19.90;99.90;;;;;;5020531;28;20194;-57
2022/11/09 12:01:39;;;;;;;;;;;19.90;99.90;;;;;;5022264;28;19937;-61
2022/11/09 12:04:44;;;;;;;;;;;20.00;99.90;;;;;;5015924;28;19925;-63
2022/11/09 12:07:41;;;;;;;;;;;20.00;99.90;;;;;;5014949;28;20289;-63
2022/11/09 12:10:36;;;;;;;;;;;20.00;99.90;;;;;;5019001;28;20021;-59
2022/11/09 12:13:30;;;;;;;;;;;20.00;99.90;;;;;;5023505;28;19925;-63
2022/11/09 12:16:28;;;;;;;;;;;20.00;99.90;;;;;;5013123;28;19929;-63
2022/11/09 12:19:43;;;;;;;;;;;20.00;99.90;;;;;;5031212;28;19926;-57
2022/11/09 12:22:47;;;;;;;;;;;20.00;99.90;;;;;;4978367;28;19925;-61
2022/11/09 12:25:49;;;;;;;;;;;20.00;99.90;;;;;;5017952;28;19937;-59
2022/11/09 12:28:38;;;;;;;;;;;20.00;99.90;;;;;;5019485;28;19927;-62
2022/11/09 12:31:27;;;;;;;;;;;20.00;99.90;;;;;;5034329;28;19924;-60
2022/11/09 12:34:22;;;;;;;;;;;20.00;99.90;;;;;;5019193;28;19925;-60
2022/11/09 12:37:11;;;;;;;;;;;19.90;99.90;;;;;;5023519;28;19925;-62
2022/11/09 12:40:02;;;;;;;;;;;19.90;99.90;;;;;;5024096;28;19925;-56
2022/11/09 12:43:08;;;;;;;;;;;19.90;99.90;;;;;;5013310;28;19925;-61
2022/11/09 12:45:54;;;;;;;;;;;19.90;99.90;;;;;;5017639;28;19929;-61
2022/11/09 12:48:39;;;;;;;;;;;19.80;99.90;;;;;;5022844;28;19925;-59
2022/11/09 12:51:25;;;;;;;;;;;19.90;99.90;;;;;;5016912;28;19922;-58
2022/11/09 12:54:11;;;;;;;;;;;19.80;99.90;;;;;;5018620;28;20385;-61
2022/11/09 12:56:58;;;;;;;;;;;19.80;99.90;;;;;;5022720;28;19925;-62
2022/11/09 12:59:48;;;;;;;;;;;19.80;99.90;;;;;;5018494;28;19925;-57
2022/11/09 13:02:36;;;;;;;;;;;19.80;99.90;;;;;;5023450;28;19921;-57
2022/11/09 13:05:31;;;;;;;;;;;19.80;99.90;;;;;;5012206;28;20321;-61
2022/11/09 13:08:19;;;;;;;;;;;19.70;99.90;;;;;;5022198;28;19922;-60
2022/11/09 13:11:28;;;;;;;;;;;19.70;99.90;;;;;;5017966;28;19921;-61
2022/11/09 13:14:25;;;;;;;;;;;19.70;99.90;;;;;;5018302;28;20313;-62
2022/11/09 13:17:20;;;;;;;;;;;19.70;99.90;;;;;;5026722;28;19922;-62
2022/11/09 13:20:25;;;;;;;;;;;19.70;99.90;;;;;;5015867;28;19925;-61
2022/11/09 13:23:34;;;;;;;;;;;19.70;99.90;;;;;;5032370;28;20304;-62
2022/11/09 13:26:46;;;;;;;;;;;19.70;99.90;;;;;;5012672;28;19924;-61
2022/11/09 13:29:34;;;;;;;;;;;19.70;99.90;;;;;;5019742;28;19921;-60
2022/11/09 13:32:20;;;;;;;;;;;19.70;99.90;;;;;;5029546;28;19921;-61
2022/11/09 13:35:25;;;;;;;;;;;19.70;99.90;;;;;;5008811;28;19921;-64
2022/11/09 13:38:40;;;;;;;;;;;19.70;99.90;;;;;;5014346;28;19930;-61
2022/11/09 13:41:30;;;;;;;;;;;19.80;99.90;;;;;;5005713;28;19921;-61
2022/11/09 13:44:16;;;;;;;;;;;19.80;99.90;;;;;;5006282;28;19921;-65
2022/11/09 13:47:01;;;;;;;;;;;19.90;99.90;;;;;;5029404;28;19921;-59
2022/11/09 13:49:48;;;;;;;;;;;19.90;99.90;;;;;;5016708;28;20328;-60
2022/11/09 13:52:46;;;;;;;;;;;20.00;99.90;;;;;;5023865;28;20284;-61
2022/11/09 13:55:37;;;;;;;;;;;20.00;99.90;;;;;;5021306;28;19929;-61
2022/11/09 13:58:29;;;;;;;;;;;20.00;99.90;;;;;;5014708;28;19930;-62
2022/11/09 14:01:24;;;;;;;;;;;20.10;99.90;;;;;;5030306;28;19921;-60
2022/11/09 14:04:30;;;;;;;;;;;20.10;99.90;;;;;;5003754;28;19921;-63
2022/11/09 14:07:23;;;;;;;;;;;20.10;99.90;;;;;;5015387;28;19921;-62
2022/11/09 14:10:09;;;;;;;;;;;20.10;99.90;;;;;;5025226;28;19924;-62
2022/11/09 14:13:04;;;;;;;;;;;20.10;99.90;;;;;;5022200;28;19921;-61
2022/11/09 14:15:55;;;;;;;;;;;20.10;99.90;;;;;;5023894;28;19925;-60
2022/11/09 14:18:56;;;;;;;;;;;20.10;99.90;;;;;;5029746;28;19921;-63
2022/11/09 14:21:43;;;;;;;;;;;20.10;99.90;;;;;;5030304;28;19925;-61
2022/11/09 14:24:31;;;;;;;;;;;20.10;99.90;;;;;;5015343;28;19925;-64
2022/11/09 14:27:18;;;;;;;;;;;20.10;99.90;;;;;;5021580;28;19925;-60
2022/11/09 14:30:12;;;;;;;;;;;20.10;99.90;;;;;;5021320;28;19922;-60
2022/11/09 14:32:57;;;;;;;;;;;20.10;99.90;;;;;;5017357;28;19924;-60
2022/11/09 14:35:43;;;;;;;;;;;20.10;99.90;;;;;;5018113;28;19929;-61
2022/11/09 14:38:35;;;;;;;;;;;20.10;99.90;;;;;;5012300;28;19921;-61
2022/11/09 14:41:23;;;;;;;;;;;20.10;99.90;;;;;;5017065;28;19921;-60
2022/11/09 14:44:19;;;;;;;;;;;20.10;99.90;;;;;;5030190;28;19925;-60
2022/11/09 14:47:05;;;;;;;;;;;20.10;99.90;;;;;;5027238;28;19922;-61
2022/11/09 14:49:51;;;;;;;;;;;20.00;99.90;;;;;;5017514;28;19925;-62
2022/11/09 14:52:38;;;;;;;;;;;20.00;99.90;;;;;;5023764;28;20381;-61
2022/11/09 14:55:24;;;;;;;;;;;20.00;99.90;;;;;;5027207;28;19929;-61
2022/11/09 14:58:11;;;;;;;;;;;20.00;99.90;;;;;;5033754;28;19921;-64
2022/11/09 15:01:09;;;;;;;;;;;20.00;99.90;;;;;;5008753;28;19925;-60
2022/11/09 15:04:07;;;;;;;;;;;19.90;99.90;;;;;;5022869;28;19921;-61
2022/11/09 15:06:55;;;;;;;;;;;19.90;99.90;;;;;;5015984;28;19929;-62